createdAt,value
2019-05-13T00:00:07.591Z,5.80
2019-05-13T00:02:08.976Z,5.90
2019-05-13T00:04:10.369Z,5.90
2019-05-13T00:06:13.374Z,5.80
2019-05-13T00:08:14.988Z,5.80
2019-05-13T00:10:16.394Z,5.70
2019-05-13T00:12:17.928Z,5.70
2019-05-13T00:14:19.333Z,5.60
2019-05-13T00:16:20.758Z,5.60
2019-05-13T00:18:23.551Z,5.50
2019-05-13T00:20:25.063Z,5.50
2019-05-13T00:22:26.433Z,5.50
2019-05-13T00:24:27.872Z,5.40
2019-05-13T00:26:29.287Z,5.30
2019-05-13T00:28:30.687Z,5.30
2019-05-13T00:30:34.305Z,5.20
2019-05-13T00:32:35.393Z,5.20
2019-05-13T00:34:36.876Z,5.20
2019-05-13T00:36:38.322Z,5.20
2019-05-13T00:38:39.692Z,5.10
2019-05-13T00:40:41.291Z,5.10
2019-05-13T00:42:44.059Z,5.20
2019-05-13T00:44:45.795Z,5.20
2019-05-13T00:46:47.166Z,5.30
2019-05-13T00:48:48.604Z,5.40
2019-05-13T00:50:49.994Z,5.40
2019-05-13T00:52:53.465Z,5.50
2019-05-13T00:54:54.997Z,5.50
2019-05-13T00:56:56.386Z,5.50
2019-05-13T00:58:57.751Z,5.40
2019-05-13T01:00:59.169Z,5.40
2019-05-13T01:03:00.558Z,5.40
2019-05-13T01:05:04.742Z,5.30
2019-05-13T01:07:06.160Z,5.20
2019-05-13T01:09:07.548Z,5.20
2019-05-13T01:11:08.934Z,5.20
2019-05-13T01:13:10.358Z,5.10
2019-05-13T01:15:13.470Z,5.10
2019-05-13T01:17:15.195Z,5.00
2019-05-13T01:19:16.585Z,5.00
2019-05-13T01:21:17.973Z,4.90
2019-05-13T01:23:19.413Z,4.80
2019-05-13T01:25:20.796Z,4.70
2019-05-13T01:27:37.572Z,4.60
2019-05-13T01:29:39.003Z,4.60
2019-05-13T01:31:40.492Z,4.50
2019-05-13T01:33:44.325Z,4.40
2019-05-13T01:35:45.240Z,4.20
2019-05-13T01:37:46.647Z,4.10
2019-05-13T01:39:48.063Z,3.90
2019-05-13T01:41:49.440Z,3.90
2019-05-13T01:43:50.828Z,3.80
2019-05-13T01:45:53.698Z,3.80
2019-05-13T01:47:55.320Z,3.80
2019-05-13T01:49:56.693Z,3.80
2019-05-13T01:51:58.126Z,3.80
2019-05-13T01:53:59.556Z,3.70
2019-05-13T01:56:00.961Z,3.70
2019-05-13T01:58:04.320Z,3.70
2019-05-13T02:00:06.392Z,3.60
2019-05-13T02:02:07.819Z,3.50
2019-05-13T02:04:09.229Z,3.50
2019-05-13T02:06:10.618Z,3.50
2019-05-13T02:08:14.300Z,3.40
2019-05-13T02:10:17.640Z,3.30
2019-05-13T02:12:19.036Z,3.30
2019-05-13T02:14:20.455Z,3.20
2019-05-13T02:16:24.262Z,3.20
2019-05-13T02:18:25.165Z,3.20
2019-05-13T02:20:26.554Z,3.20
2019-05-13T02:22:27.942Z,3.20
2019-05-13T02:24:29.362Z,3.10
2019-05-13T02:26:30.739Z,3.10
2019-05-13T02:28:33.431Z,3.10
2019-05-13T02:30:35.214Z,3.10
2019-05-13T02:32:36.614Z,3.00
2019-05-13T02:34:38.022Z,3.00
2019-05-13T02:36:39.397Z,2.90
2019-05-13T02:38:42.671Z,2.90
2019-05-13T02:40:44.280Z,2.90
2019-05-13T02:42:45.727Z,2.80
2019-05-13T02:44:47.073Z,2.80
2019-05-13T02:46:48.462Z,2.70
2019-05-13T02:48:52.752Z,2.80
2019-05-13T02:50:54.779Z,2.70
2019-05-13T02:52:56.366Z,2.70
2019-05-13T02:54:57.828Z,2.70
2019-05-13T02:56:59.275Z,2.70
2019-05-13T02:59:03.915Z,2.70
2019-05-13T03:01:04.031Z,2.70
2019-05-13T03:03:05.546Z,2.70
2019-05-13T03:05:07.950Z,2.70
2019-05-13T03:07:11.824Z,2.70
2019-05-13T03:09:13.099Z,2.80
2019-05-13T03:11:14.611Z,2.80
2019-05-13T03:13:15.975Z,2.80
2019-05-13T03:15:17.363Z,2.80
2019-05-13T03:17:39.055Z,2.90
2019-05-13T03:19:43.286Z,2.90
2019-05-13T03:21:44.140Z,2.90
2019-05-13T03:23:45.549Z,3.00
2019-05-13T03:25:46.969Z,2.90
2019-05-13T03:27:48.373Z,3.00
2019-05-13T03:29:53.087Z,3.00
2019-05-13T03:31:55.531Z,3.00
2019-05-13T03:33:56.808Z,3.00
2019-05-13T03:35:58.474Z,2.90
2019-05-13T03:38:03.336Z,3.00
2019-05-13T03:40:04.601Z,3.00
2019-05-13T03:42:12.325Z,3.00
2019-05-13T03:44:17.342Z,3.10
2019-05-13T03:46:22.729Z,3.10
2019-05-13T03:48:24.387Z,3.10
2019-05-13T03:50:30.233Z,3.10
2019-05-13T03:52:29.081Z,3.20
2019-05-13T03:54:32.761Z,3.20
2019-05-13T03:56:34.856Z,3.20
2019-05-13T03:58:36.291Z,3.20
2019-05-13T04:00:37.741Z,3.30
2019-05-13T04:02:42.578Z,3.30
2019-05-13T04:04:42.691Z,3.30
2019-05-13T04:06:44.067Z,3.30
2019-05-13T04:08:45.442Z,3.40
2019-05-13T04:10:46.842Z,3.40
2019-05-13T04:12:48.273Z,3.40
2019-05-13T04:14:52.648Z,3.40
2019-05-13T04:16:53.550Z,3.40
2019-05-13T04:18:55.107Z,3.50
2019-05-13T04:20:56.591Z,3.50
2019-05-13T04:22:58.229Z,3.60
2019-05-13T04:25:02.448Z,3.60
2019-05-13T04:27:03.427Z,3.70
2019-05-13T04:29:05.095Z,3.70
2019-05-13T04:31:06.605Z,3.80
2019-05-13T04:33:08.389Z,3.80
2019-05-13T04:35:12.396Z,3.90
2019-05-13T04:37:13.585Z,4.00
2019-05-13T04:39:15.102Z,4.10
2019-05-13T04:41:16.513Z,4.10
2019-05-13T04:43:18.233Z,4.20
2019-05-13T04:45:25.524Z,4.20
2019-05-13T04:47:26.906Z,4.30
2019-05-13T04:49:28.324Z,4.40
2019-05-13T04:51:32.929Z,4.40
2019-05-13T04:53:33.792Z,4.40
2019-05-13T04:55:35.180Z,4.50
2019-05-13T04:57:36.557Z,4.60
2019-05-13T04:59:41.341Z,4.60
2019-05-13T05:02:16.709Z,4.70
2019-05-13T05:04:34.814Z,4.80
2019-05-13T05:06:52.561Z,4.90
2019-05-13T05:09:29.242Z,4.90
2019-05-13T05:11:52.933Z,5.00
2019-05-13T05:14:25.855Z,5.00
2019-05-13T05:16:47.465Z,5.00
2019-05-13T05:19:14.056Z,5.10
2019-05-13T05:21:24.062Z,5.20
2019-05-13T05:24:02.018Z,5.30
2019-05-13T05:26:31.367Z,5.40
2019-05-13T05:28:52.782Z,5.50
2019-05-13T05:31:11.668Z,5.60
2019-05-13T05:34:11.440Z,5.70
2019-05-13T05:37:08.424Z,5.80
2019-05-13T05:39:22.700Z,5.90
2019-05-13T05:41:28.301Z,6.00
2019-05-13T05:43:32.135Z,6.00
2019-05-13T05:45:35.410Z,6.20
2019-05-13T05:47:38.888Z,6.30
2019-05-13T05:49:43.101Z,6.40
2019-05-13T05:51:47.010Z,6.40
2019-05-13T05:53:51.686Z,6.50
2019-05-13T05:55:55.173Z,6.60
2019-05-13T05:57:56.696Z,6.70
2019-05-13T05:59:59.157Z,6.80
2019-05-13T06:02:02.203Z,6.90
2019-05-13T06:04:03.779Z,7.00
2019-05-13T06:06:05.827Z,7.10
2019-05-13T06:08:07.324Z,7.30
2019-05-13T06:10:11.432Z,7.50
2019-05-13T06:12:13.957Z,7.90
2019-05-13T06:14:15.359Z,8.60
2019-05-13T06:16:16.866Z,9.00
2019-05-13T06:18:18.443Z,9.60
2019-05-13T06:20:21.119Z,10.10
2019-05-13T06:22:22.773Z,10.50
2019-05-13T06:24:26.763Z,10.70
2019-05-13T06:26:27.639Z,11.00
2019-05-13T06:28:29.067Z,11.30
2019-05-13T06:30:32.580Z,11.50
2019-05-13T06:32:34.022Z,11.70
2019-05-13T06:34:36.132Z,11.90
2019-05-13T06:36:37.712Z,12.00
2019-05-13T06:38:39.151Z,12.20
2019-05-13T06:40:42.453Z,12.50
2019-05-13T06:42:43.796Z,12.60
2019-05-13T06:44:45.199Z,12.60
2019-05-13T06:46:46.572Z,12.70
2019-05-13T06:48:47.982Z,12.60
2019-05-13T06:50:51.925Z,12.70
2019-05-13T06:52:52.671Z,12.70
2019-05-13T06:54:54.157Z,12.80
2019-05-13T06:56:55.565Z,13.00
2019-05-13T06:58:56.941Z,13.20
2019-05-13T07:00:58.918Z,13.30
2019-05-13T07:03:02.261Z,13.40
2019-05-13T07:05:06.019Z,13.40
2019-05-13T07:07:13.134Z,13.60
2019-05-13T07:09:12.022Z,13.90
2019-05-13T07:11:20.392Z,14.00
2019-05-13T07:13:17.495Z,14.00
2019-05-13T07:15:18.917Z,14.10
2019-05-13T07:17:22.328Z,14.10
2019-05-13T07:19:23.975Z,14.30
2019-05-13T07:21:25.550Z,14.30
2019-05-13T07:23:26.937Z,14.30
2019-05-13T07:25:28.316Z,14.50
2019-05-13T07:27:31.776Z,14.60
2019-05-13T07:29:32.994Z,14.50
2019-05-13T07:31:34.554Z,14.50
2019-05-13T07:33:36.022Z,14.50
2019-05-13T07:35:38.308Z,14.80
2019-05-13T07:37:42.355Z,14.90
2019-05-13T07:39:44.518Z,14.90
2019-05-13T07:41:45.897Z,14.90
2019-05-13T07:43:47.292Z,15.10
2019-05-13T07:45:51.260Z,15.20
2019-05-13T07:47:52.203Z,15.20
2019-05-13T07:49:53.682Z,15.10
2019-05-13T07:51:55.276Z,15.00
2019-05-13T07:53:56.745Z,14.90
2019-05-13T07:55:58.112Z,14.90
2019-05-13T07:58:01.860Z,15.10
2019-05-13T08:00:06.201Z,15.30
2019-05-13T08:02:07.645Z,15.40
2019-05-13T08:04:21.052Z,15.60
2019-05-13T08:06:12.276Z,15.70
2019-05-13T08:08:13.704Z,15.50
2019-05-13T08:10:15.167Z,15.50
2019-05-13T08:12:47.425Z,15.60
2019-05-13T08:14:48.893Z,15.90
2019-05-13T08:16:51.825Z,15.80
2019-05-13T08:18:53.434Z,15.70
2019-05-13T08:20:54.833Z,15.70
2019-05-13T08:22:56.259Z,15.90
2019-05-13T08:24:57.678Z,16.00
2019-05-13T08:27:02.164Z,16.10
2019-05-13T08:29:05.812Z,16.50
2019-05-13T08:31:06.239Z,16.60
2019-05-13T08:33:07.638Z,16.60
2019-05-13T08:35:11.856Z,16.80
2019-05-13T08:37:12.707Z,16.90
2019-05-13T08:39:14.237Z,16.90
2019-05-13T08:41:19.572Z,17.00
2019-05-13T08:43:18.968Z,17.20
2019-05-13T08:45:22.402Z,17.40
2019-05-13T08:47:24.074Z,17.30
2019-05-13T08:49:26.037Z,17.10
2019-05-13T08:51:31.148Z,17.00
2019-05-13T08:53:31.784Z,17.00
2019-05-13T08:55:33.300Z,17.10
2019-05-13T08:57:34.788Z,17.10
2019-05-13T08:59:36.179Z,17.20
2019-05-13T09:01:37.581Z,17.30
2019-05-13T09:03:41.532Z,17.30
2019-05-13T09:05:42.517Z,17.60
2019-05-13T09:07:43.977Z,17.60
2019-05-13T09:09:45.389Z,17.60
2019-05-13T09:11:46.796Z,17.70
2019-05-13T09:13:48.301Z,17.90
2019-05-13T09:15:51.707Z,18.10
2019-05-13T09:17:52.945Z,18.00
2019-05-13T09:19:54.347Z,18.00
2019-05-13T09:21:55.717Z,18.10
2019-05-13T09:23:57.119Z,17.80
2019-05-13T09:25:58.717Z,17.90
2019-05-13T09:28:02.594Z,17.90
2019-05-13T09:30:05.632Z,18.00
2019-05-13T09:32:07.000Z,17.60
2019-05-13T09:34:08.404Z,17.20
2019-05-13T09:36:12.356Z,17.20
2019-05-13T09:38:13.148Z,17.40
2019-05-13T09:40:14.719Z,17.70
2019-05-13T09:42:16.086Z,17.80
2019-05-13T09:44:17.508Z,17.80
2019-05-13T09:46:18.886Z,17.90
2019-05-13T09:48:22.495Z,17.60
2019-05-13T09:50:29.422Z,16.80
2019-05-13T09:52:26.855Z,16.50
2019-05-13T09:54:28.270Z,16.80
2019-05-13T09:56:31.974Z,17.10
2019-05-13T09:58:33.362Z,17.50
2019-05-13T10:00:35.048Z,17.60
2019-05-13T10:02:36.447Z,17.60
2019-05-13T10:04:37.855Z,17.40
2019-05-13T10:06:41.688Z,17.50
2019-05-13T10:08:42.583Z,17.70
2019-05-13T10:10:43.951Z,18.00
2019-05-13T10:12:45.329Z,17.40
2019-05-13T10:14:46.731Z,17.20
2019-05-13T10:16:48.102Z,16.80
2019-05-13T10:18:49.509Z,16.90
2019-05-13T10:20:58.782Z,17.40
2019-05-13T10:23:01.698Z,17.70
2019-05-13T10:25:06.713Z,18.00
2019-05-13T10:27:08.283Z,18.10
2019-05-13T10:29:11.895Z,18.50
2019-05-13T10:31:13.269Z,18.70
2019-05-13T10:33:15.138Z,18.80
2019-05-13T10:35:16.768Z,18.70
2019-05-13T10:37:18.278Z,19.00
2019-05-13T10:39:22.178Z,18.80
2019-05-13T10:41:23.120Z,18.80
2019-05-13T10:43:31.451Z,18.30
2019-05-13T10:45:27.871Z,17.60
2019-05-13T10:47:29.288Z,16.90
2019-05-13T10:49:33.130Z,16.60
2019-05-13T10:51:34.669Z,16.20
2019-05-13T10:53:36.490Z,15.80
2019-05-13T10:55:37.915Z,15.90
2019-05-13T10:57:41.878Z,16.60
2019-05-13T10:59:42.592Z,17.10
2019-05-13T11:01:44.299Z,17.40
2019-05-13T11:03:45.735Z,17.60
2019-05-13T11:05:47.704Z,17.50
2019-05-13T11:07:51.296Z,17.80
2019-05-13T11:09:52.910Z,18.00
2019-05-13T11:11:54.465Z,17.90
2019-05-13T11:13:59.382Z,17.20
2019-05-13T11:16:01.932Z,16.70
2019-05-13T11:18:03.647Z,16.30
2019-05-13T11:20:06.220Z,16.50
2019-05-13T11:22:07.721Z,17.10
2019-05-13T11:24:12.251Z,17.80
2019-05-13T11:26:13.035Z,17.80
2019-05-13T11:28:14.777Z,17.50
2019-05-13T11:30:16.444Z,17.10
2019-05-13T11:32:17.823Z,16.60
2019-05-13T11:34:21.573Z,16.20
2019-05-13T11:36:23.700Z,16.10
2019-05-13T11:38:25.454Z,16.00
2019-05-13T11:40:26.829Z,16.00
2019-05-13T11:42:28.198Z,16.20
2019-05-13T11:44:31.986Z,16.30
2019-05-13T11:46:33.463Z,16.20
2019-05-13T11:48:34.970Z,16.20
2019-05-13T11:50:36.389Z,16.00
2019-05-13T11:52:37.761Z,15.80
2019-05-13T11:54:42.235Z,15.70
2019-05-13T11:56:49.391Z,16.20
2019-05-13T11:58:45.727Z,16.50
2019-05-13T12:00:53.091Z,16.60
2019-05-13T12:02:55.064Z,16.60
2019-05-13T12:04:56.431Z,16.40
2019-05-13T12:06:57.846Z,16.50
2019-05-13T12:09:02.778Z,16.80
2019-05-13T12:11:04.316Z,17.10
2019-05-13T12:13:06.105Z,17.30
2019-05-13T12:15:38.114Z,17.60
2019-05-13T12:17:14.219Z,17.80
2019-05-13T12:19:14.362Z,18.20
2019-05-13T12:21:15.805Z,18.00
2019-05-13T12:23:17.179Z,18.20
2019-05-13T12:25:18.582Z,18.20
2019-05-13T12:27:19.956Z,17.80
2019-05-13T12:29:21.333Z,17.20
2019-05-13T12:31:22.734Z,17.00
2019-05-13T12:33:24.110Z,17.00
2019-05-13T12:35:25.552Z,17.50
2019-05-13T12:37:26.955Z,17.50
2019-05-13T12:39:28.316Z,17.30
2019-05-13T12:41:32.984Z,16.90
2019-05-13T12:43:33.036Z,16.70
2019-05-13T12:45:34.415Z,17.00
2019-05-13T12:47:36.146Z,17.40
2019-05-13T12:49:37.522Z,17.80
2019-05-13T12:51:38.883Z,18.10
2019-05-13T12:53:43.554Z,18.50
2019-05-13T12:55:43.577Z,19.10
2019-05-13T12:57:45.366Z,19.30
2019-05-13T12:59:46.778Z,18.90
2019-05-13T13:01:48.157Z,18.40
2019-05-13T13:03:49.830Z,18.20
2019-05-13T13:05:51.236Z,18.40
2019-05-13T13:08:16.614Z,18.50
2019-05-13T13:09:55.931Z,18.80
2019-05-13T13:11:57.341Z,19.10
2019-05-13T13:14:04.062Z,19.00
2019-05-13T13:16:03.773Z,19.20
2019-05-13T13:18:05.601Z,19.40
2019-05-13T13:20:09.713Z,19.00
2019-05-13T13:22:13.192Z,18.90
2019-05-13T13:24:14.206Z,18.90
2019-05-13T13:26:16.418Z,19.20
2019-05-13T13:28:18.035Z,19.30
2019-05-13T13:30:19.840Z,18.70
2019-05-13T13:32:24.666Z,18.10
2019-05-13T13:34:26.055Z,17.80
2019-05-13T13:36:27.895Z,17.60
2019-05-13T13:38:32.463Z,17.80
2019-05-13T13:40:35.221Z,18.00
2019-05-13T13:42:35.843Z,18.30
2019-05-13T13:44:37.249Z,18.70
2019-05-13T13:46:48.168Z,18.70
2019-05-13T13:48:43.685Z,18.80
2019-05-13T13:50:45.252Z,18.70
2019-05-13T13:52:46.620Z,18.50
2019-05-13T13:54:58.175Z,18.40
2019-05-13T13:56:56.009Z,18.10
2019-05-13T13:58:54.956Z,18.00
2019-05-13T14:01:07.147Z,18.00
2019-05-13T14:03:06.018Z,17.90
2019-05-13T14:05:05.570Z,17.60
2019-05-13T14:07:22.561Z,17.70
2019-05-13T14:09:12.054Z,17.60
2019-05-13T14:11:13.678Z,17.40
2019-05-13T14:13:15.050Z,17.10
2019-05-13T14:15:16.631Z,17.30
2019-05-13T14:17:18.041Z,17.20
2019-05-13T14:19:21.675Z,17.00
2019-05-13T14:21:22.803Z,16.80
2019-05-13T14:23:24.176Z,16.60
2019-05-13T14:25:25.561Z,16.50
2019-05-13T14:27:26.962Z,16.10
2019-05-13T14:29:38.503Z,15.90
2019-05-13T14:31:32.390Z,15.90
2019-05-13T14:33:35.631Z,16.00
2019-05-13T14:35:37.321Z,15.90
2019-05-13T14:37:38.682Z,15.70
2019-05-13T14:39:40.093Z,15.50
2019-05-13T14:41:42.561Z,15.50
2019-05-13T14:43:44.326Z,15.50
2019-05-13T14:45:45.729Z,15.60
2019-05-13T14:47:47.131Z,15.70
2019-05-13T14:49:48.492Z,15.60
2019-05-13T14:51:52.266Z,15.50
2019-05-13T14:53:53.481Z,15.50
2019-05-13T14:55:54.855Z,15.40
2019-05-13T14:57:56.264Z,15.30
2019-05-13T14:59:57.649Z,15.20
2019-05-13T15:02:01.147Z,15.20
2019-05-13T15:04:03.003Z,15.20
2019-05-13T15:06:04.513Z,15.30
2019-05-13T15:08:05.922Z,15.40
2019-05-13T15:10:07.797Z,15.50
2019-05-13T15:12:09.523Z,15.80
2019-05-13T15:14:11.616Z,16.20
2019-05-13T15:16:13.340Z,16.50
2019-05-13T15:18:14.948Z,16.80
2019-05-13T15:20:16.823Z,17.00
2019-05-13T15:22:18.276Z,17.10
2019-05-13T15:24:21.315Z,17.20
2019-05-13T15:26:23.381Z,17.10
2019-05-13T15:28:24.772Z,17.10
2019-05-13T15:30:26.146Z,17.20
2019-05-13T15:32:27.514Z,17.10
2019-05-13T15:34:28.928Z,17.10
2019-05-13T15:36:31.567Z,16.90
2019-05-13T15:38:33.328Z,16.90
2019-05-13T15:40:34.697Z,17.00
2019-05-13T15:42:36.104Z,17.10
2019-05-13T15:44:37.779Z,17.00
2019-05-13T15:46:41.166Z,16.80
2019-05-13T15:48:42.474Z,16.70
2019-05-13T15:50:43.854Z,16.70
2019-05-13T15:52:45.222Z,16.70
2019-05-13T15:54:46.644Z,16.70
2019-05-13T15:56:48.014Z,16.70
2019-05-13T15:58:49.384Z,16.60
2019-05-13T16:00:52.379Z,16.50
2019-05-13T16:02:54.089Z,16.50
2019-05-13T16:05:01.195Z,16.60
2019-05-13T16:07:01.459Z,16.50
2019-05-13T16:09:05.580Z,16.30
2019-05-13T16:11:06.944Z,16.20
2019-05-13T16:13:08.347Z,16.10
2019-05-13T16:15:15.563Z,16.10
2019-05-13T16:17:14.656Z,16.10
2019-05-13T16:19:16.016Z,16.20
2019-05-13T16:21:17.815Z,16.30
2019-05-13T16:23:21.280Z,16.30
2019-05-13T16:25:22.460Z,16.40
2019-05-13T16:27:24.169Z,16.40
2019-05-13T16:29:25.537Z,16.30
2019-05-13T16:31:26.911Z,16.20
2019-05-13T16:33:28.312Z,16.10
2019-05-13T16:35:31.912Z,16.00
2019-05-13T16:37:33.003Z,16.20
2019-05-13T16:39:34.375Z,16.50
2019-05-13T16:41:36.052Z,16.90
2019-05-13T16:43:37.460Z,17.10
2019-05-13T16:45:38.839Z,17.10
2019-05-13T16:47:55.886Z,17.30
2019-05-13T16:49:43.726Z,17.20
2019-05-13T16:51:45.202Z,17.10
2019-05-13T16:53:46.616Z,16.80
2019-05-13T16:55:47.987Z,16.60
2019-05-13T16:57:51.162Z,16.20
2019-05-13T16:59:52.663Z,15.90
2019-05-13T17:01:54.133Z,15.70
2019-05-13T17:03:55.581Z,15.50
2019-05-13T17:05:56.952Z,15.40
2019-05-13T17:07:58.418Z,15.40
2019-05-13T17:10:01.102Z,15.40
2019-05-13T17:12:03.293Z,15.30
2019-05-13T17:14:05.863Z,15.30
2019-05-13T17:16:07.478Z,15.30
2019-05-13T17:18:12.261Z,15.30
2019-05-13T17:20:12.860Z,15.30
2019-05-13T17:22:14.332Z,15.20
2019-05-13T17:24:15.769Z,15.10
2019-05-13T17:26:17.144Z,15.20
2019-05-13T17:28:18.557Z,15.30
2019-05-13T17:30:21.972Z,15.50
2019-05-13T17:32:23.549Z,15.70
2019-05-13T17:34:25.149Z,16.10
2019-05-13T17:36:26.578Z,16.20
2019-05-13T17:38:27.950Z,16.10
2019-05-13T17:40:31.349Z,15.90
2019-05-13T17:42:32.652Z,15.70
2019-05-13T17:44:52.429Z,15.40
2019-05-13T17:46:53.809Z,15.30
2019-05-13T17:48:55.215Z,15.20
2019-05-13T17:50:56.591Z,15.10
2019-05-13T17:52:57.972Z,15.00
2019-05-13T17:55:01.128Z,15.00
2019-05-13T17:57:02.662Z,14.90
2019-05-13T17:59:04.040Z,14.80
2019-05-13T18:01:05.629Z,14.60
2019-05-13T18:03:07.006Z,14.50
2019-05-13T18:05:12.059Z,14.50
2019-05-13T18:07:13.806Z,14.50
2019-05-13T18:09:15.214Z,14.30
2019-05-13T18:11:16.592Z,14.20
2019-05-13T18:13:17.964Z,14.00
2019-05-13T18:15:19.378Z,13.90
2019-05-13T18:17:21.565Z,13.80
2019-05-13T18:19:25.783Z,13.70
2019-05-13T18:21:26.491Z,13.60
2019-05-13T18:23:27.967Z,13.50
2019-05-13T18:25:31.553Z,13.50
2019-05-13T18:27:32.658Z,13.40
2019-05-13T18:29:34.085Z,13.30
2019-05-13T18:31:35.456Z,13.30
2019-05-13T18:33:36.896Z,13.30
2019-05-13T18:35:38.300Z,13.20
2019-05-13T18:37:41.800Z,13.30
2019-05-13T18:39:43.001Z,13.20
2019-05-13T18:41:44.374Z,13.00
2019-05-13T18:43:45.791Z,13.00
2019-05-13T18:45:47.164Z,13.00
2019-05-13T18:47:48.536Z,12.90
2019-05-13T18:49:50.725Z,12.90
2019-05-13T18:51:52.096Z,12.90
2019-05-13T18:53:53.501Z,12.80
2019-05-13T18:55:54.901Z,12.70
2019-05-13T18:57:56.263Z,12.60
2019-05-13T18:59:57.640Z,12.50
2019-05-13T19:02:01.050Z,12.30
2019-05-13T19:04:02.410Z,12.10
2019-05-13T19:06:03.813Z,11.90
2019-05-13T19:08:05.413Z,11.80
2019-05-13T19:10:07.483Z,11.60
2019-05-13T19:12:11.400Z,11.50
2019-05-13T19:14:12.458Z,11.30
2019-05-13T19:16:14.008Z,11.30
2019-05-13T19:18:15.388Z,11.20
2019-05-13T19:20:17.354Z,11.20
2019-05-13T19:22:20.835Z,11.10
2019-05-13T19:24:22.071Z,10.90
2019-05-13T19:26:23.446Z,10.90
2019-05-13T19:28:24.825Z,10.90
2019-05-13T19:30:26.223Z,10.80
2019-05-13T19:32:27.624Z,10.70
2019-05-13T19:34:29.011Z,10.60
2019-05-13T19:36:30.375Z,10.50
2019-05-13T19:38:32.108Z,10.40
2019-05-13T19:40:33.710Z,10.30
2019-05-13T19:42:35.075Z,10.20
2019-05-13T19:44:36.483Z,10.10
2019-05-13T19:46:37.957Z,10.00
2019-05-13T19:48:41.564Z,9.90
2019-05-13T19:50:42.658Z,9.80
2019-05-13T19:52:44.027Z,9.80
2019-05-13T19:54:45.395Z,9.70
2019-05-13T19:56:46.809Z,9.60
2019-05-13T19:58:48.236Z,9.50
2019-05-13T20:00:51.463Z,9.30
2019-05-13T20:02:52.963Z,9.20
2019-05-13T20:04:54.379Z,9.10
2019-05-13T20:06:55.839Z,9.10
2019-05-13T20:08:57.248Z,9.10
2019-05-13T20:10:59.165Z,9.10
2019-05-13T20:13:06.362Z,9.10
2019-05-13T20:15:08.171Z,9.10
2019-05-13T20:17:09.560Z,9.10
2019-05-13T20:19:11.825Z,9.20
2019-05-13T20:21:13.674Z,9.30
2019-05-13T20:23:15.153Z,9.40
2019-05-13T20:25:16.683Z,9.50
2019-05-13T20:27:18.107Z,9.50
2019-05-13T20:29:19.518Z,9.50
2019-05-13T20:31:21.661Z,9.50
2019-05-13T20:33:23.273Z,9.40
2019-05-13T20:35:24.676Z,9.40
2019-05-13T20:37:26.080Z,9.50
2019-05-13T20:39:27.494Z,9.40
2019-05-13T20:41:28.909Z,9.30
2019-05-13T20:43:32.556Z,9.20
2019-05-13T20:45:34.588Z,9.10
2019-05-13T20:47:35.994Z,9.00
2019-05-13T20:49:37.369Z,9.00
2019-05-13T20:51:41.048Z,8.90
2019-05-13T20:53:42.409Z,8.90
2019-05-13T20:55:43.807Z,8.90
2019-05-13T20:57:45.178Z,8.90
2019-05-13T20:59:46.589Z,8.80
2019-05-13T21:01:48.004Z,8.70
2019-05-13T21:03:51.573Z,8.60
2019-05-13T21:05:52.722Z,8.60
2019-05-13T21:07:54.357Z,8.60
2019-05-13T21:09:55.796Z,8.50
2019-05-13T21:11:57.348Z,8.60
2019-05-13T21:14:01.042Z,8.60
2019-05-13T21:16:02.455Z,8.60
2019-05-13T21:18:04.064Z,8.60
2019-05-13T21:20:18.710Z,8.60
2019-05-13T21:22:11.727Z,8.60
2019-05-13T21:24:12.731Z,8.50
2019-05-13T21:26:15.663Z,8.60
2019-05-13T21:28:17.330Z,8.50
2019-05-13T21:30:18.810Z,8.50
2019-05-13T21:32:21.380Z,8.50
2019-05-13T21:34:22.947Z,8.40
2019-05-13T21:36:24.321Z,8.30
2019-05-13T21:38:25.707Z,8.20
2019-05-13T21:40:27.084Z,8.10
2019-05-13T21:42:28.461Z,8.00
2019-05-13T21:44:29.882Z,7.80
2019-05-13T21:46:31.293Z,7.80
2019-05-13T21:48:32.762Z,7.70
2019-05-13T21:50:37.288Z,7.60
2019-05-13T21:52:37.889Z,7.50
2019-05-13T21:54:39.291Z,7.30
2019-05-13T21:56:42.669Z,7.30
2019-05-13T21:58:44.002Z,7.20
2019-05-13T22:00:46.279Z,7.10
2019-05-13T22:02:47.712Z,7.10
2019-05-13T22:04:49.092Z,7.00
2019-05-13T22:06:50.500Z,7.00
2019-05-13T22:08:51.990Z,6.90
2019-05-13T22:10:53.412Z,6.80
2019-05-13T22:12:54.820Z,6.70
2019-05-13T22:14:56.190Z,6.60
2019-05-13T22:16:57.602Z,6.50
2019-05-13T22:19:01.410Z,6.50
2019-05-13T22:21:02.605Z,6.40
2019-05-13T22:23:03.975Z,6.30
2019-05-13T22:25:06.004Z,6.30
2019-05-13T22:27:10.246Z,6.20
2019-05-13T22:29:10.660Z,6.10
2019-05-13T22:31:12.079Z,6.10
2019-05-13T22:33:13.493Z,6.10
2019-05-13T22:35:14.860Z,6.10
2019-05-13T22:37:16.237Z,6.10
2019-05-13T22:39:17.641Z,6.00
2019-05-13T22:41:19.015Z,6.10
2019-05-13T22:43:21.230Z,6.00
2019-05-13T22:45:22.838Z,6.00
2019-05-13T22:47:24.204Z,5.90
2019-05-13T22:49:25.613Z,5.80
2019-05-13T22:51:26.983Z,5.70
2019-05-13T22:53:28.391Z,5.70
2019-05-13T22:55:31.270Z,5.60
2019-05-13T22:57:32.745Z,5.60
2019-05-13T22:59:34.155Z,5.60
2019-05-13T23:01:35.528Z,5.50
2019-05-13T23:03:36.910Z,5.40
2019-05-13T23:05:38.305Z,5.40
2019-05-13T23:07:39.734Z,5.40
2019-05-13T23:09:41.691Z,5.30
2019-05-13T23:11:43.175Z,5.30
2019-05-13T23:13:44.585Z,5.30
2019-05-13T23:15:45.952Z,5.30
2019-05-13T23:17:48.624Z,5.30
2019-05-13T23:19:52.271Z,5.40
2019-05-13T23:21:53.445Z,5.40
2019-05-13T23:23:54.821Z,5.50
2019-05-13T23:25:57.009Z,5.50
2019-05-13T23:27:58.536Z,5.40
2019-05-13T23:30:01.140Z,5.40
2019-05-13T23:32:02.883Z,5.40
2019-05-13T23:34:04.299Z,5.40
2019-05-13T23:36:05.672Z,5.30
2019-05-13T23:38:07.061Z,5.30
2019-05-13T23:40:08.960Z,5.30
2019-05-13T23:42:12.246Z,5.30
2019-05-13T23:44:24.151Z,5.30
2019-05-13T23:46:16.921Z,5.30
2019-05-13T23:48:18.294Z,5.20
2019-05-13T23:50:21.555Z,5.00
2019-05-13T23:52:23.015Z,5.00
2019-05-13T23:54:24.438Z,5.00
2019-05-13T23:56:25.809Z,4.90
2019-05-13T23:58:27.217Z,4.90
